sensor_id;sensor_type;location;lat;lon;timestamp;P1;durP1;ratioP1;P2;durP2;ratioP2
29200;SDS011;16244;51.956;12.980;2023-08-08T00:02:08;36.40;;;30.80;;
29200;SDS011;16244;51.956;12.980;2023-08-08T00:04:35;28.20;;;16.27;;
29200;SDS011;16244;51.956;12.980;2023-08-08T00:07:03;32.10;;;26.63;;
29200;SDS011;16244;51.956;12.980;2023-08-08T00:09:32;45.00;;;40.97;;
29200;SDS011;16244;51.956;12.980;2023-08-08T00:12:00;26.27;;;23.13;;
29200;SDS011;16244;51.956;12.980;2023-08-08T00:14:27;32.23;;;26.83;;
29200;SDS011;16244;51.956;12.980;2023-08-08T00:16:55;36.70;;;31.27;;
29200;SDS011;16244;51.956;12.980;2023-08-08T00:19:28;31.57;;;24.63;;
29200;SDS011;16244;51.956;12.980;2023-08-08T00:21:55;45.77;;;35.80;;
29200;SDS011;16244;51.956;12.980;2023-08-08T00:24:23;26.00;;;23.43;;
29200;SDS011;16244;51.956;12.980;2023-08-08T00:26:52;40.27;;;36.67;;
29200;SDS011;16244;51.956;12.980;2023-08-08T00:29:19;38.70;;;27.27;;
29200;SDS011;16244;51.956;12.980;2023-08-08T00:31:48;36.77;;;33.47;;
29200;SDS011;16244;51.956;12.980;2023-08-08T00:34:16;35.40;;;26.90;;
29200;SDS011;16244;51.956;12.980;2023-08-08T00:36:43;37.40;;;31.67;;
29200;SDS011;16244;51.956;12.980;2023-08-08T00:39:11;29.17;;;22.57;;
29200;SDS011;16244;51.956;12.980;2023-08-08T00:41:39;43.03;;;39.07;;
29200;SDS011;16244;51.956;12.980;2023-08-08T00:44:08;25.17;;;22.50;;
29200;SDS011;16244;51.956;12.980;2023-08-08T00:46:35;44.50;;;36.77;;
29200;SDS011;16244;51.956;12.980;2023-08-08T00:49:04;33.83;;;27.87;;
29200;SDS011;16244;51.956;12.980;2023-08-08T00:51:33;30.27;;;27.00;;
29200;SDS011;16244;51.956;12.980;2023-08-08T00:54:00;32.77;;;27.43;;
29200;SDS011;16244;51.956;12.980;2023-08-08T00:56:29;33.07;;;24.83;;
29200;SDS011;16244;51.956;12.980;2023-08-08T00:58:57;43.70;;;39.30;;
29200;SDS011;16244;51.956;12.980;2023-08-08T01:01:28;39.10;;;34.87;;
29200;SDS011;16244;51.956;12.980;2023-08-08T01:03:55;44.20;;;31.47;;
29200;SDS011;16244;51.956;12.980;2023-08-08T01:06:29;39.97;;;26.17;;
29200;SDS011;16244;51.956;12.980;2023-08-08T01:09:03;43.10;;;26.03;;
29200;SDS011;16244;51.956;12.980;2023-08-08T01:11:33;34.70;;;28.53;;
29200;SDS011;16244;51.956;12.980;2023-08-08T01:14:03;35.07;;;31.37;;
29200;SDS011;16244;51.956;12.980;2023-08-08T01:16:34;30.50;;;26.17;;
29200;SDS011;16244;51.956;12.980;2023-08-08T01:19:03;34.97;;;24.37;;
29200;SDS011;16244;51.956;12.980;2023-08-08T01:21:33;53.80;;;44.73;;
29200;SDS011;16244;51.956;12.980;2023-08-08T01:24:16;38.37;;;31.03;;
29200;SDS011;16244;51.956;12.980;2023-08-08T01:26:45;36.33;;;28.87;;
29200;SDS011;16244;51.956;12.980;2023-08-08T01:29:13;29.17;;;25.53;;
29200;SDS011;16244;51.956;12.980;2023-08-08T01:31:42;34.67;;;29.07;;
29200;SDS011;16244;51.956;12.980;2023-08-08T01:34:09;34.53;;;30.83;;
29200;SDS011;16244;51.956;12.980;2023-08-08T01:36:40;31.93;;;25.57;;
29200;SDS011;16244;51.956;12.980;2023-08-08T01:39:13;28.97;;;20.77;;
29200;SDS011;16244;51.956;12.980;2023-08-08T01:41:44;42.73;;;32.60;;
29200;SDS011;16244;51.956;12.980;2023-08-08T01:44:14;30.00;;;25.17;;
29200;SDS011;16244;51.956;12.980;2023-08-08T01:46:43;50.53;;;44.43;;
29200;SDS011;16244;51.956;12.980;2023-08-08T01:49:11;33.30;;;27.10;;
29200;SDS011;16244;51.956;12.980;2023-08-08T01:51:38;37.53;;;32.57;;
29200;SDS011;16244;51.956;12.980;2023-08-08T01:54:06;40.77;;;31.47;;
29200;SDS011;16244;51.956;12.980;2023-08-08T01:56:34;53.10;;;48.17;;
29200;SDS011;16244;51.956;12.980;2023-08-08T01:59:02;44.13;;;39.70;;
29200;SDS011;16244;51.956;12.980;2023-08-08T02:01:29;45.57;;;34.63;;
29200;SDS011;16244;51.956;12.980;2023-08-08T02:03:57;57.80;;;51.20;;
29200;SDS011;16244;51.956;12.980;2023-08-08T02:06:24;47.23;;;42.37;;
29200;SDS011;16244;51.956;12.980;2023-08-08T02:08:52;31.00;;;26.03;;
29200;SDS011;16244;51.956;12.980;2023-08-08T02:11:19;33.47;;;27.67;;
29200;SDS011;16244;51.956;12.980;2023-08-08T02:13:49;37.77;;;33.77;;
29200;SDS011;16244;51.956;12.980;2023-08-08T02:16:17;57.27;;;46.97;;
29200;SDS011;16244;51.956;12.980;2023-08-08T02:18:44;39.80;;;33.77;;
29200;SDS011;16244;51.956;12.980;2023-08-08T02:21:11;52.50;;;45.33;;
29200;SDS011;16244;51.956;12.980;2023-08-08T02:23:39;40.07;;;33.67;;
29200;SDS011;16244;51.956;12.980;2023-08-08T02:26:06;41.17;;;33.40;;
29200;SDS011;16244;51.956;12.980;2023-08-08T02:28:34;36.37;;;32.90;;
29200;SDS011;16244;51.956;12.980;2023-08-08T02:31:03;33.67;;;28.63;;
29200;SDS011;16244;51.956;12.980;2023-08-08T02:33:30;29.17;;;23.67;;
29200;SDS011;16244;51.956;12.980;2023-08-08T02:35:57;42.40;;;34.30;;
29200;SDS011;16244;51.956;12.980;2023-08-08T02:38:25;51.73;;;33.07;;
29200;SDS011;16244;51.956;12.980;2023-08-08T02:40:52;42.53;;;29.47;;
29200;SDS011;16244;51.956;12.980;2023-08-08T02:43:20;46.57;;;36.57;;
29200;SDS011;16244;51.956;12.980;2023-08-08T02:45:48;53.97;;;48.33;;
29200;SDS011;16244;51.956;12.980;2023-08-08T02:48:17;36.17;;;28.60;;
29200;SDS011;16244;51.956;12.980;2023-08-08T02:50:44;49.70;;;35.33;;
29200;SDS011;16244;51.956;12.980;2023-08-08T02:53:12;39.90;;;35.70;;
29200;SDS011;16244;51.956;12.980;2023-08-08T02:55:39;47.43;;;34.60;;
29200;SDS011;16244;51.956;12.980;2023-08-08T02:58:07;42.27;;;30.93;;
29200;SDS011;16244;51.956;12.980;2023-08-08T03:00:34;66.43;;;36.90;;
29200;SDS011;16244;51.956;12.980;2023-08-08T03:03:02;53.83;;;48.20;;
29200;SDS011;16244;51.956;12.980;2023-08-08T03:05:31;41.97;;;35.37;;
29200;SDS011;16244;51.956;12.980;2023-08-08T03:07:58;47.87;;;30.20;;
29200;SDS011;16244;51.956;12.980;2023-08-08T03:10:26;60.80;;;43.40;;
29200;SDS011;16244;51.956;12.980;2023-08-08T03:12:53;49.73;;;38.60;;
29200;SDS011;16244;51.956;12.980;2023-08-08T03:15:21;53.03;;;36.80;;
29200;SDS011;16244;51.956;12.980;2023-08-08T03:17:48;55.70;;;39.17;;
29200;SDS011;16244;51.956;12.980;2023-08-08T03:20:16;54.33;;;39.40;;
29200;SDS011;16244;51.956;12.980;2023-08-08T03:22:45;58.73;;;52.83;;
29200;SDS011;16244;51.956;12.980;2023-08-08T03:25:12;45.00;;;40.23;;
29200;SDS011;16244;51.956;12.980;2023-08-08T03:27:40;52.17;;;38.17;;
29200;SDS011;16244;51.956;12.980;2023-08-08T03:30:08;50.73;;;36.27;;
29200;SDS011;16244;51.956;12.980;2023-08-08T03:32:36;70.53;;;55.93;;
29200;SDS011;16244;51.956;12.980;2023-08-08T03:35:04;36.80;;;31.97;;
29200;SDS011;16244;51.956;12.980;2023-08-08T03:37:32;58.80;;;53.60;;
29200;SDS011;16244;51.956;12.980;2023-08-08T03:40:01;36.40;;;32.50;;
29200;SDS011;16244;51.956;12.980;2023-08-08T03:42:29;33.67;;;30.27;;
29200;SDS011;16244;51.956;12.980;2023-08-08T03:44:56;71.50;;;56.73;;
29200;SDS011;16244;51.956;12.980;2023-08-08T03:47:24;60.37;;;54.23;;
29200;SDS011;16244;51.956;12.980;2023-08-08T03:49:53;51.77;;;40.57;;
29200;SDS011;16244;51.956;12.980;2023-08-08T03:52:23;56.63;;;47.90;;
29200;SDS011;16244;51.956;12.980;2023-08-08T03:54:51;37.67;;;34.27;;
29200;SDS011;16244;51.956;12.980;2023-08-08T03:57:20;52.13;;;35.17;;
29200;SDS011;16244;51.956;12.980;2023-08-08T03:59:47;45.13;;;33.67;;
29200;SDS011;16244;51.956;12.980;2023-08-08T04:02:14;46.33;;;38.30;;
29200;SDS011;16244;51.956;12.980;2023-08-08T04:04:42;51.67;;;43.83;;
29200;SDS011;16244;51.956;12.980;2023-08-08T04:07:09;41.33;;;33.30;;
29200;SDS011;16244;51.956;12.980;2023-08-08T04:09:37;43.60;;;33.77;;
29200;SDS011;16244;51.956;12.980;2023-08-08T04:12:04;59.73;;;35.40;;
29200;SDS011;16244;51.956;12.980;2023-08-08T04:14:34;35.90;;;29.50;;
29200;SDS011;16244;51.956;12.980;2023-08-08T04:17:01;88.10;;;61.07;;
29200;SDS011;16244;51.956;12.980;2023-08-08T04:19:30;44.43;;;37.90;;
29200;SDS011;16244;51.956;12.980;2023-08-08T04:21:58;44.93;;;33.67;;
29200;SDS011;16244;51.956;12.980;2023-08-08T04:24:26;45.70;;;35.67;;
29200;SDS011;16244;51.956;12.980;2023-08-08T04:26:53;39.20;;;29.20;;
29200;SDS011;16244;51.956;12.980;2023-08-08T04:29:20;51.20;;;44.37;;
29200;SDS011;16244;51.956;12.980;2023-08-08T04:31:49;43.83;;;36.80;;
29200;SDS011;16244;51.956;12.980;2023-08-08T04:34:17;47.50;;;38.90;;
29200;SDS011;16244;51.956;12.980;2023-08-08T04:36:44;44.77;;;39.87;;
29200;SDS011;16244;51.956;12.980;2023-08-08T04:39:12;40.50;;;36.33;;
29200;SDS011;16244;51.956;12.980;2023-08-08T04:41:39;51.40;;;46.50;;
29200;SDS011;16244;51.956;12.980;2023-08-08T04:44:07;41.20;;;34.00;;
29200;SDS011;16244;51.956;12.980;2023-08-08T04:46:34;46.43;;;36.70;;
29200;SDS011;16244;51.956;12.980;2023-08-08T04:49:03;59.47;;;53.13;;
29200;SDS011;16244;51.956;12.980;2023-08-08T04:51:31;45.30;;;36.47;;
29200;SDS011;16244;51.956;12.980;2023-08-08T04:53:59;60.67;;;37.23;;
29200;SDS011;16244;51.956;12.980;2023-08-08T04:56:26;40.10;;;35.20;;
29200;SDS011;16244;51.956;12.980;2023-08-08T04:58:54;54.03;;;48.43;;
29200;SDS011;16244;51.956;12.980;2023-08-08T05:01:21;42.73;;;35.60;;
29200;SDS011;16244;51.956;12.980;2023-08-08T05:03:49;47.87;;;42.67;;
29200;SDS011;16244;51.956;12.980;2023-08-08T05:06:18;55.87;;;45.60;;
29200;SDS011;16244;51.956;12.980;2023-08-08T05:08:45;42.73;;;34.30;;
29200;SDS011;16244;51.956;12.980;2023-08-08T05:11:13;46.27;;;41.37;;
29200;SDS011;16244;51.956;12.980;2023-08-08T05:13:40;34.10;;;27.70;;
29200;SDS011;16244;51.956;12.980;2023-08-08T05:16:08;45.50;;;40.63;;
29200;SDS011;16244;51.956;12.980;2023-08-08T05:18:36;49.90;;;35.70;;
29200;SDS011;16244;51.956;12.980;2023-08-08T05:21:03;43.43;;;30.70;;
29200;SDS011;16244;51.956;12.980;2023-08-08T05:23:32;49.03;;;34.37;;
29200;SDS011;16244;51.956;12.980;2023-08-08T05:26:00;37.37;;;27.40;;
29200;SDS011;16244;51.956;12.980;2023-08-08T05:28:27;33.70;;;26.57;;
29200;SDS011;16244;51.956;12.980;2023-08-08T05:30:55;40.23;;;31.33;;
29200;SDS011;16244;51.956;12.980;2023-08-08T05:33:23;33.13;;;29.53;;
29200;SDS011;16244;51.956;12.980;2023-08-08T05:35:50;30.27;;;22.90;;
29200;SDS011;16244;51.956;12.980;2023-08-08T05:38:18;42.67;;;36.00;;
29200;SDS011;16244;51.956;12.980;2023-08-08T05:40:46;31.37;;;27.87;;
29200;SDS011;16244;51.956;12.980;2023-08-08T05:43:14;32.87;;;26.53;;
29200;SDS011;16244;51.956;12.980;2023-08-08T05:45:44;31.20;;;27.97;;
29200;SDS011;16244;51.956;12.980;2023-08-08T05:48:11;22.20;;;19.93;;
29200;SDS011;16244;51.956;12.980;2023-08-08T05:50:39;30.10;;;22.70;;
29200;SDS011;16244;51.956;12.980;2023-08-08T05:53:07;45.17;;;31.60;;
29200;SDS011;16244;51.956;12.980;2023-08-08T05:55:34;26.17;;;23.33;;
29200;SDS011;16244;51.956;12.980;2023-08-08T05:58:03;26.07;;;23.53;;
29200;SDS011;16244;51.956;12.980;2023-08-08T06:00:31;32.77;;;23.30;;
29200;SDS011;16244;51.956;12.980;2023-08-08T06:02:58;34.83;;;29.17;;
29200;SDS011;16244;51.956;12.980;2023-08-08T06:05:26;41.10;;;37.77;;
29200;SDS011;16244;51.956;12.980;2023-08-08T06:07:54;29.97;;;25.37;;
29200;SDS011;16244;51.956;12.980;2023-08-08T06:10:22;31.13;;;27.90;;
29200;SDS011;16244;51.956;12.980;2023-08-08T06:12:51;32.43;;;28.87;;
29200;SDS011;16244;51.956;12.980;2023-08-08T06:15:20;37.73;;;26.27;;
29200;SDS011;16244;51.956;12.980;2023-08-08T06:17:47;41.57;;;37.97;;
29200;SDS011;16244;51.956;12.980;2023-08-08T06:20:15;42.40;;;38.07;;
29200;SDS011;16244;51.956;12.980;2023-08-08T06:22:42;29.00;;;25.87;;
29200;SDS011;16244;51.956;12.980;2023-08-08T06:25:10;34.83;;;31.27;;
29200;SDS011;16244;51.956;12.980;2023-08-08T06:27:37;39.10;;;35.40;;
29200;SDS011;16244;51.956;12.980;2023-08-08T06:30:05;33.43;;;25.83;;
29200;SDS011;16244;51.956;12.980;2023-08-08T06:32:35;36.53;;;23.67;;
29200;SDS011;16244;51.956;12.980;2023-08-08T06:35:03;29.97;;;23.07;;
29200;SDS011;16244;51.956;12.980;2023-08-08T06:37:31;42.07;;;27.13;;
29200;SDS011;16244;51.956;12.980;2023-08-08T06:39:59;28.33;;;21.53;;
29200;SDS011;16244;51.956;12.980;2023-08-08T06:42:27;39.20;;;29.00;;
29200;SDS011;16244;51.956;12.980;2023-08-08T06:44:54;31.17;;;26.47;;
29200;SDS011;16244;51.956;12.980;2023-08-08T06:47:22;37.87;;;29.57;;
29200;SDS011;16244;51.956;12.980;2023-08-08T06:49:51;42.87;;;37.30;;
29200;SDS011;16244;51.956;12.980;2023-08-08T06:52:18;24.33;;;21.93;;
29200;SDS011;16244;51.956;12.980;2023-08-08T06:54:46;39.70;;;35.80;;
29200;SDS011;16244;51.956;12.980;2023-08-08T06:57:13;28.93;;;26.07;;
29200;SDS011;16244;51.956;12.980;2023-08-08T06:59:41;40.77;;;24.90;;
29200;SDS011;16244;51.956;12.980;2023-08-08T07:02:08;37.37;;;33.40;;
29200;SDS011;16244;51.956;12.980;2023-08-08T07:04:37;34.03;;;30.53;;
29200;SDS011;16244;51.956;12.980;2023-08-08T07:07:06;26.23;;;21.93;;
29200;SDS011;16244;51.956;12.980;2023-08-08T07:09:33;28.40;;;24.10;;
29200;SDS011;16244;51.956;12.980;2023-08-08T07:12:03;28.63;;;22.03;;
29200;SDS011;16244;51.956;12.980;2023-08-08T07:14:31;23.07;;;18.63;;
29200;SDS011;16244;51.956;12.980;2023-08-08T07:16:58;22.77;;;19.67;;
29200;SDS011;16244;51.956;12.980;2023-08-08T07:19:28;18.53;;;14.40;;
29200;SDS011;16244;51.956;12.980;2023-08-08T07:21:55;27.43;;;23.20;;
29200;SDS011;16244;51.956;12.980;2023-08-08T07:24:24;18.63;;;16.73;;
29200;SDS011;16244;51.956;12.980;2023-08-08T07:26:54;24.80;;;22.17;;
29200;SDS011;16244;51.956;12.980;2023-08-08T07:29:21;28.37;;;23.00;;
29200;SDS011;16244;51.956;12.980;2023-08-08T07:31:50;19.83;;;15.57;;
29200;SDS011;16244;51.956;12.980;2023-08-08T07:34:19;21.27;;;15.80;;
29200;SDS011;16244;51.956;12.980;2023-08-08T07:36:47;14.73;;;13.33;;
29200;SDS011;16244;51.956;12.980;2023-08-08T07:39:14;33.07;;;21.27;;
29200;SDS011;16244;51.956;12.980;2023-08-08T07:41:43;18.73;;;17.13;;
29200;SDS011;16244;51.956;12.980;2023-08-08T07:44:11;22.93;;;20.67;;
29200;SDS011;16244;51.956;12.980;2023-08-08T07:46:38;20.97;;;18.33;;
29200;SDS011;16244;51.956;12.980;2023-08-08T07:49:05;19.47;;;17.77;;
29200;SDS011;16244;51.956;12.980;2023-08-08T07:51:35;10.70;;;9.33;;
29200;SDS011;16244;51.956;12.980;2023-08-08T07:54:02;21.93;;;18.90;;
29200;SDS011;16244;51.956;12.980;2023-08-08T07:56:31;20.87;;;8.70;;
29200;SDS011;16244;51.956;12.980;2023-08-08T07:59:00;11.57;;;10.70;;
29200;SDS011;16244;51.956;12.980;2023-08-08T08:01:28;11.13;;;10.13;;
29200;SDS011;16244;51.956;12.980;2023-08-08T08:03:55;21.87;;;18.53;;
29200;SDS011;16244;51.956;12.980;2023-08-08T08:06:23;10.43;;;9.50;;
29200;SDS011;16244;51.956;12.980;2023-08-08T08:08:50;9.10;;;8.33;;
29200;SDS011;16244;51.956;12.980;2023-08-08T08:11:18;6.10;;;5.73;;
29200;SDS011;16244;51.956;12.980;2023-08-08T08:13:45;16.97;;;9.43;;
29200;SDS011;16244;51.956;12.980;2023-08-08T08:16:14;10.20;;;9.23;;
29200;SDS011;16244;51.956;12.980;2023-08-08T08:18:42;10.60;;;9.53;;
29200;SDS011;16244;51.956;12.980;2023-08-08T08:21:10;8.80;;;8.13;;
29200;SDS011;16244;51.956;12.980;2023-08-08T08:23:39;3.83;;;3.63;;
29200;SDS011;16244;51.956;12.980;2023-08-08T08:26:06;6.50;;;5.90;;
29200;SDS011;16244;51.956;12.980;2023-08-08T08:28:34;3.07;;;2.87;;
29200;SDS011;16244;51.956;12.980;2023-08-08T08:31:03;1.90;;;1.70;;
29200;SDS011;16244;51.956;12.980;2023-08-08T08:33:33;1.63;;;1.53;;
29200;SDS011;16244;51.956;12.980;2023-08-08T08:36:00;1.57;;;1.30;;
29200;SDS011;16244;51.956;12.980;2023-08-08T08:38:28;0.93;;;0.93;;
29200;SDS011;16244;51.956;12.980;2023-08-08T08:40:56;1.50;;;1.50;;
29200;SDS011;16244;51.956;12.980;2023-08-08T08:43:24;2.57;;;2.47;;
29200;SDS011;16244;51.956;12.980;2023-08-08T08:45:53;4.70;;;4.40;;
29200;SDS011;16244;51.956;12.980;2023-08-08T08:48:21;1.10;;;1.10;;
29200;SDS011;16244;51.956;12.980;2023-08-08T08:50:50;0.80;;;0.80;;
29200;SDS011;16244;51.956;12.980;2023-08-08T08:53:18;0.80;;;0.80;;
29200;SDS011;16244;51.956;12.980;2023-08-08T08:55:46;0.90;;;0.90;;
29200;SDS011;16244;51.956;12.980;2023-08-08T08:58:15;0.80;;;0.80;;
29200;SDS011;16244;51.956;12.980;2023-08-08T09:00:43;1.00;;;0.90;;
29200;SDS011;16244;51.956;12.980;2023-08-08T09:03:12;0.70;;;0.70;;
29200;SDS011;16244;51.956;12.980;2023-08-08T09:05:39;1.77;;;1.67;;
29200;SDS011;16244;51.956;12.980;2023-08-08T09:08:12;0.80;;;0.60;;
29200;SDS011;16244;51.956;12.980;2023-08-08T09:10:41;0.80;;;0.80;;
29200;SDS011;16244;51.956;12.980;2023-08-08T09:13:08;1.63;;;0.70;;
29200;SDS011;16244;51.956;12.980;2023-08-08T09:15:36;0.70;;;0.70;;
29200;SDS011;16244;51.956;12.980;2023-08-08T09:18:03;2.87;;;1.57;;
29200;SDS011;16244;51.956;12.980;2023-08-08T09:20:31;1.20;;;1.10;;
29200;SDS011;16244;51.956;12.980;2023-08-08T09:22:59;3.20;;;2.90;;
29200;SDS011;16244;51.956;12.980;2023-08-08T09:25:28;2.70;;;1.00;;
29200;SDS011;16244;51.956;12.980;2023-08-08T09:27:55;0.90;;;0.60;;
29200;SDS011;16244;51.956;12.980;2023-08-08T09:30:23;0.70;;;0.70;;
29200;SDS011;16244;51.956;12.980;2023-08-08T09:32:50;0.77;;;0.77;;
29200;SDS011;16244;51.956;12.980;2023-08-08T09:35:18;0.70;;;0.70;;
29200;SDS011;16244;51.956;12.980;2023-08-08T09:37:45;2.50;;;0.90;;
29200;SDS011;16244;51.956;12.980;2023-08-08T09:40:13;0.60;;;0.60;;
29200;SDS011;16244;51.956;12.980;2023-08-08T09:42:43;5.93;;;3.03;;
29200;SDS011;16244;51.956;12.980;2023-08-08T09:45:10;0.67;;;0.67;;
29200;SDS011;16244;51.956;12.980;2023-08-08T09:47:37;1.27;;;0.83;;
29200;SDS011;16244;51.956;12.980;2023-08-08T09:50:06;0.57;;;0.57;;
29200;SDS011;16244;51.956;12.980;2023-08-08T09:52:34;0.60;;;0.60;;
29200;SDS011;16244;51.956;12.980;2023-08-08T09:55:04;0.90;;;0.70;;
29200;SDS011;16244;51.956;12.980;2023-08-08T09:57:32;1.23;;;0.70;;
29200;SDS011;16244;51.956;12.980;2023-08-08T10:00:02;0.60;;;0.60;;
29200;SDS011;16244;51.956;12.980;2023-08-08T10:02:31;0.60;;;0.60;;
29200;SDS011;16244;51.956;12.980;2023-08-08T10:04:59;0.63;;;0.63;;
29200;SDS011;16244;51.956;12.980;2023-08-08T10:07:28;0.63;;;0.63;;
29200;SDS011;16244;51.956;12.980;2023-08-08T10:09:56;0.67;;;0.60;;
29200;SDS011;16244;51.956;12.980;2023-08-08T10:12:24;0.77;;;0.53;;
29200;SDS011;16244;51.956;12.980;2023-08-08T10:14:53;0.60;;;0.60;;
29200;SDS011;16244;51.956;12.980;2023-08-08T10:17:23;1.00;;;0.73;;
29200;SDS011;16244;51.956;12.980;2023-08-08T10:19:51;2.10;;;1.07;;
29200;SDS011;16244;51.956;12.980;2023-08-08T10:22:21;0.70;;;0.70;;
29200;SDS011;16244;51.956;12.980;2023-08-08T10:24:51;1.10;;;0.80;;
29200;SDS011;16244;51.956;12.980;2023-08-08T10:27:28;1.37;;;0.80;;
29200;SDS011;16244;51.956;12.980;2023-08-08T10:30:02;0.80;;;0.60;;
29200;SDS011;16244;51.956;12.980;2023-08-08T10:32:40;2.93;;;1.20;;
29200;SDS011;16244;51.956;12.980;2023-08-08T10:35:09;0.60;;;0.60;;
29200;SDS011;16244;51.956;12.980;2023-08-08T10:37:38;2.10;;;1.50;;
29200;SDS011;16244;51.956;12.980;2023-08-08T10:40:07;0.80;;;0.80;;
29200;SDS011;16244;51.956;12.980;2023-08-08T10:42:41;0.93;;;0.93;;
29200;SDS011;16244;51.956;12.980;2023-08-08T10:45:10;0.77;;;0.77;;
29200;SDS011;16244;51.956;12.980;2023-08-08T10:47:40;0.70;;;0.70;;
29200;SDS011;16244;51.956;12.980;2023-08-08T10:50:09;2.03;;;0.83;;
29200;SDS011;16244;51.956;12.980;2023-08-08T10:52:38;0.80;;;0.70;;
29200;SDS011;16244;51.956;12.980;2023-08-08T10:55:21;0.50;;;0.50;;
29200;SDS011;16244;51.956;12.980;2023-08-08T10:57:55;2.20;;;0.67;;
29200;SDS011;16244;51.956;12.980;2023-08-08T11:00:26;83.27;;;16.47;;
29200;SDS011;16244;51.956;12.980;2023-08-08T11:02:57;0.57;;;0.57;;
29200;SDS011;16244;51.956;12.980;2023-08-08T11:05:27;0.60;;;0.60;;
29200;SDS011;16244;51.956;12.980;2023-08-08T11:07:56;0.70;;;0.70;;
29200;SDS011;16244;51.956;12.980;2023-08-08T11:10:24;0.90;;;0.90;;
29200;SDS011;16244;51.956;12.980;2023-08-08T11:12:57;0.70;;;0.70;;
29200;SDS011;16244;51.956;12.980;2023-08-08T11:15:25;0.50;;;0.50;;
29200;SDS011;16244;51.956;12.980;2023-08-08T11:17:53;2.00;;;0.70;;
29200;SDS011;16244;51.956;12.980;2023-08-08T11:20:23;0.60;;;0.60;;
29200;SDS011;16244;51.956;12.980;2023-08-08T11:22:51;4.10;;;0.50;;
29200;SDS011;16244;51.956;12.980;2023-08-08T11:25:20;0.70;;;0.50;;
29200;SDS011;16244;51.956;12.980;2023-08-08T11:27:48;0.80;;;0.60;;
29200;SDS011;16244;51.956;12.980;2023-08-08T11:30:17;0.50;;;0.50;;
29200;SDS011;16244;51.956;12.980;2023-08-08T11:32:45;0.60;;;0.60;;
29200;SDS011;16244;51.956;12.980;2023-08-08T11:35:15;0.80;;;0.80;;
29200;SDS011;16244;51.956;12.980;2023-08-08T11:37:46;0.70;;;0.70;;
29200;SDS011;16244;51.956;12.980;2023-08-08T11:40:14;0.90;;;0.60;;
29200;SDS011;16244;51.956;12.980;2023-08-08T11:42:42;0.60;;;0.60;;
29200;SDS011;16244;51.956;12.980;2023-08-08T11:45:11;4.77;;;0.60;;
29200;SDS011;16244;51.956;12.980;2023-08-08T11:47:38;1.13;;;0.80;;
29200;SDS011;16244;51.956;12.980;2023-08-08T11:50:07;0.70;;;0.70;;
29200;SDS011;16244;51.956;12.980;2023-08-08T11:52:40;0.70;;;0.70;;
29200;SDS011;16244;51.956;12.980;2023-08-08T11:55:10;0.60;;;0.60;;
29200;SDS011;16244;51.956;12.980;2023-08-08T11:57:38;0.60;;;0.60;;
29200;SDS011;16244;51.956;12.980;2023-08-08T12:00:06;2.27;;;0.90;;
29200;SDS011;16244;51.956;12.980;2023-08-08T12:02:35;1.70;;;0.80;;
29200;SDS011;16244;51.956;12.980;2023-08-08T12:05:03;0.70;;;0.70;;
29200;SDS011;16244;51.956;12.980;2023-08-08T12:07:32;0.90;;;0.90;;
29200;SDS011;16244;51.956;12.980;2023-08-08T12:10:00;0.87;;;0.87;;
29200;SDS011;16244;51.956;12.980;2023-08-08T12:12:31;1.00;;;1.00;;
29200;SDS011;16244;51.956;12.980;2023-08-08T12:15:03;2.27;;;2.17;;
29200;SDS011;16244;51.956;12.980;2023-08-08T12:17:31;6.43;;;6.00;;
29200;SDS011;16244;51.956;12.980;2023-08-08T12:19:58;16.17;;;14.60;;
29200;SDS011;16244;51.956;12.980;2023-08-08T12:22:26;23.30;;;20.83;;
29200;SDS011;16244;51.956;12.980;2023-08-08T12:24:53;26.90;;;21.77;;
29200;SDS011;16244;51.956;12.980;2023-08-08T12:27:21;31.37;;;28.07;;
29200;SDS011;16244;51.956;12.980;2023-08-08T12:29:50;36.37;;;27.43;;
29200;SDS011;16244;51.956;12.980;2023-08-08T12:32:18;45.50;;;30.67;;
29200;SDS011;16244;51.956;12.980;2023-08-08T12:34:49;33.90;;;30.40;;
29200;SDS011;16244;51.956;12.980;2023-08-08T12:37:17;41.20;;;31.97;;
29200;SDS011;16244;51.956;12.980;2023-08-08T12:39:44;37.27;;;33.77;;
29200;SDS011;16244;51.956;12.980;2023-08-08T12:42:11;42.30;;;26.17;;
29200;SDS011;16244;51.956;12.980;2023-08-08T12:44:39;30.60;;;23.23;;
29200;SDS011;16244;51.956;12.980;2023-08-08T12:47:08;30.33;;;21.10;;
29200;SDS011;16244;51.956;12.980;2023-08-08T12:49:35;33.70;;;27.83;;
29200;SDS011;16244;51.956;12.980;2023-08-08T12:52:03;30.97;;;27.67;;
29200;SDS011;16244;51.956;12.980;2023-08-08T12:54:31;26.57;;;20.37;;
29200;SDS011;16244;51.956;12.980;2023-08-08T12:56:59;37.87;;;25.80;;
29200;SDS011;16244;51.956;12.980;2023-08-08T12:59:26;35.57;;;31.90;;
29200;SDS011;16244;51.956;12.980;2023-08-08T13:01:53;39.50;;;24.03;;
29200;SDS011;16244;51.956;12.980;2023-08-08T13:04:23;34.67;;;28.73;;
29200;SDS011;16244;51.956;12.980;2023-08-08T13:06:51;32.40;;;24.97;;
29200;SDS011;16244;51.956;12.980;2023-08-08T13:09:19;21.17;;;17.87;;
29200;SDS011;16244;51.956;12.980;2023-08-08T13:11:47;43.40;;;28.33;;
29200;SDS011;16244;51.956;12.980;2023-08-08T13:14:14;42.87;;;32.60;;
29200;SDS011;16244;51.956;12.980;2023-08-08T13:16:42;38.67;;;25.80;;
29200;SDS011;16244;51.956;12.980;2023-08-08T13:19:09;40.90;;;31.77;;
29200;SDS011;16244;51.956;12.980;2023-08-08T13:21:38;56.27;;;48.90;;
29200;SDS011;16244;51.956;12.980;2023-08-08T13:24:06;56.63;;;45.57;;
29200;SDS011;16244;51.956;12.980;2023-08-08T13:26:35;36.13;;;32.33;;
29200;SDS011;16244;51.956;12.980;2023-08-08T13:29:03;43.73;;;32.67;;
29200;SDS011;16244;51.956;12.980;2023-08-08T13:31:30;51.10;;;37.47;;
29200;SDS011;16244;51.956;12.980;2023-08-08T13:33:58;45.73;;;40.90;;
29200;SDS011;16244;51.956;12.980;2023-08-08T13:36:25;31.07;;;25.53;;
29200;SDS011;16244;51.956;12.980;2023-08-08T13:38:54;35.63;;;24.07;;
29200;SDS011;16244;51.956;12.980;2023-08-08T13:41:21;52.83;;;41.53;;
29200;SDS011;16244;51.956;12.980;2023-08-08T13:43:49;35.87;;;31.20;;
29200;SDS011;16244;51.956;12.980;2023-08-08T13:46:17;40.60;;;26.07;;
29200;SDS011;16244;51.956;12.980;2023-08-08T13:48:44;39.87;;;28.33;;
29200;SDS011;16244;51.956;12.980;2023-08-08T13:51:12;45.80;;;39.30;;
29200;SDS011;16244;51.956;12.980;2023-08-08T13:53:39;42.87;;;36.33;;
29200;SDS011;16244;51.956;12.980;2023-08-08T13:56:08;48.97;;;32.90;;
29200;SDS011;16244;51.956;12.980;2023-08-08T13:58:36;52.03;;;46.77;;
29200;SDS011;16244;51.956;12.980;2023-08-08T14:01:04;35.10;;;27.43;;
29200;SDS011;16244;51.956;12.980;2023-08-08T14:03:31;39.57;;;33.77;;
29200;SDS011;16244;51.956;12.980;2023-08-08T14:05:59;44.67;;;31.13;;
29200;SDS011;16244;51.956;12.980;2023-08-08T14:08:26;43.90;;;34.97;;
29200;SDS011;16244;51.956;12.980;2023-08-08T14:10:54;56.13;;;31.40;;
29200;SDS011;16244;51.956;12.980;2023-08-08T14:13:22;58.73;;;45.90;;
29200;SDS011;16244;51.956;12.980;2023-08-08T14:15:50;43.27;;;29.57;;
29200;SDS011;16244;51.956;12.980;2023-08-08T14:18:18;34.97;;;31.37;;
29200;SDS011;16244;51.956;12.980;2023-08-08T14:20:45;44.30;;;34.43;;
29200;SDS011;16244;51.956;12.980;2023-08-08T14:23:13;31.87;;;27.43;;